sensor_id;sensor_type;location;lat;lon;timestamp;P1;durP1;ratioP1;P2;durP2;ratioP2
7493;SDS011;3788;49.902;8.590;2022-10-22T00:02:26;1.60;;;1.50;;
7493;SDS011;3788;49.902;8.590;2022-10-22T00:04:53;2.67;;;2.17;;
7493;SDS011;3788;49.902;8.590;2022-10-22T00:07:21;2.10;;;1.90;;
7493;SDS011;3788;49.902;8.590;2022-10-22T00:09:48;3.10;;;1.60;;
7493;SDS011;3788;49.902;8.590;2022-10-22T00:12:15;3.33;;;1.60;;
7493;SDS011;3788;49.902;8.590;2022-10-22T00:14:43;1.93;;;1.77;;
7493;SDS011;3788;49.902;8.590;2022-10-22T00:17:10;2.50;;;2.10;;
7493;SDS011;3788;49.902;8.590;2022-10-22T00:19:37;3.63;;;1.87;;
7493;SDS011;3788;49.902;8.590;2022-10-22T00:22:04;4.50;;;2.40;;
7493;SDS011;3788;49.902;8.590;2022-10-22T00:24:31;2.60;;;2.00;;
7493;SDS011;3788;49.902;8.590;2022-10-22T00:26:59;1.90;;;1.57;;
7493;SDS011;3788;49.902;8.590;2022-10-22T00:29:25;3.80;;;1.90;;
7493;SDS011;3788;49.902;8.590;2022-10-22T00:31:53;3.07;;;1.57;;
7493;SDS011;3788;49.902;8.590;2022-10-22T00:34:21;2.43;;;1.70;;
7493;SDS011;3788;49.902;8.590;2022-10-22T00:36:48;2.60;;;1.90;;
7493;SDS011;3788;49.902;8.590;2022-10-22T00:39:17;2.17;;;1.73;;
7493;SDS011;3788;49.902;8.590;2022-10-22T00:41:46;3.00;;;1.80;;
7493;SDS011;3788;49.902;8.590;2022-10-22T00:47:23;4.40;;;1.77;;
7493;SDS011;3788;49.902;8.590;2022-10-22T00:49:53;2.27;;;1.90;;
7493;SDS011;3788;49.902;8.590;2022-10-22T00:52:21;1.60;;;1.50;;
7493;SDS011;3788;49.902;8.590;2022-10-22T00:54:48;3.10;;;2.00;;
7493;SDS011;3788;49.902;8.590;2022-10-22T00:57:16;6.50;;;1.77;;
7493;SDS011;3788;49.902;8.590;2022-10-22T00:59:45;3.97;;;1.97;;
7493;SDS011;3788;49.902;8.590;2022-10-22T01:02:12;3.27;;;1.83;;
7493;SDS011;3788;49.902;8.590;2022-10-22T01:04:40;2.00;;;1.53;;
7493;SDS011;3788;49.902;8.590;2022-10-22T01:07:08;4.47;;;1.90;;
7493;SDS011;3788;49.902;8.590;2022-10-22T01:09:41;3.10;;;1.90;;
7493;SDS011;3788;49.902;8.590;2022-10-22T01:12:13;3.33;;;2.10;;
7493;SDS011;3788;49.902;8.590;2022-10-22T01:14:51;2.83;;;1.43;;
7493;SDS011;3788;49.902;8.590;2022-10-22T01:17:29;2.93;;;1.80;;
7493;SDS011;3788;49.902;8.590;2022-10-22T01:20:04;2.30;;;1.70;;
7493;SDS011;3788;49.902;8.590;2022-10-22T01:22:46;1.53;;;1.43;;
7493;SDS011;3788;49.902;8.590;2022-10-22T01:25:23;2.97;;;1.47;;
7493;SDS011;3788;49.902;8.590;2022-10-22T01:28:00;2.30;;;1.53;;
7493;SDS011;3788;49.902;8.590;2022-10-22T01:30:39;2.73;;;1.53;;
7493;SDS011;3788;49.902;8.590;2022-10-22T01:33:08;2.10;;;1.60;;
7493;SDS011;3788;49.902;8.590;2022-10-22T01:35:38;2.73;;;1.60;;
7493;SDS011;3788;49.902;8.590;2022-10-22T01:38:08;4.07;;;1.67;;
7493;SDS011;3788;49.902;8.590;2022-10-22T01:40:37;2.20;;;1.30;;
7493;SDS011;3788;49.902;8.590;2022-10-22T01:43:07;1.67;;;1.57;;
7493;SDS011;3788;49.902;8.590;2022-10-22T01:45:36;2.97;;;1.90;;
7493;SDS011;3788;49.902;8.590;2022-10-22T01:48:10;1.30;;;1.20;;
7493;SDS011;3788;49.902;8.590;2022-10-22T01:50:58;1.20;;;1.10;;
7493;SDS011;3788;49.902;8.590;2022-10-22T01:53:36;8.97;;;1.57;;
7493;SDS011;3788;49.902;8.590;2022-10-22T01:56:10;1.53;;;1.00;;
7493;SDS011;3788;49.902;8.590;2022-10-22T01:58:50;1.20;;;1.10;;
7493;SDS011;3788;49.902;8.590;2022-10-22T02:01:22;2.00;;;1.20;;
7493;SDS011;3788;49.902;8.590;2022-10-22T02:04:00;2.27;;;1.30;;
7493;SDS011;3788;49.902;8.590;2022-10-22T02:06:31;1.93;;;0.90;;
7493;SDS011;3788;49.902;8.590;2022-10-22T02:08:58;3.27;;;1.30;;
7493;SDS011;3788;49.902;8.590;2022-10-22T02:11:27;2.23;;;1.23;;
7493;SDS011;3788;49.902;8.590;2022-10-22T02:13:55;2.80;;;1.20;;
7493;SDS011;3788;49.902;8.590;2022-10-22T02:16:27;1.53;;;1.20;;
7493;SDS011;3788;49.902;8.590;2022-10-22T02:18:59;1.40;;;1.30;;
7493;SDS011;3788;49.902;8.590;2022-10-22T02:21:31;1.90;;;1.37;;
7493;SDS011;3788;49.902;8.590;2022-10-22T02:23:58;2.03;;;0.93;;
7493;SDS011;3788;49.902;8.590;2022-10-22T02:26:27;3.87;;;1.37;;
7493;SDS011;3788;49.902;8.590;2022-10-22T02:29:04;1.93;;;1.10;;
7493;SDS011;3788;49.902;8.590;2022-10-22T02:31:35;2.60;;;1.10;;
7493;SDS011;3788;49.902;8.590;2022-10-22T02:34:06;1.23;;;0.77;;
7493;SDS011;3788;49.902;8.590;2022-10-22T02:36:38;1.27;;;0.93;;
7493;SDS011;3788;49.902;8.590;2022-10-22T02:39:06;1.53;;;1.13;;
7493;SDS011;3788;49.902;8.590;2022-10-22T02:41:34;1.47;;;1.37;;
7493;SDS011;3788;49.902;8.590;2022-10-22T02:44:05;2.27;;;1.10;;
7493;SDS011;3788;49.902;8.590;2022-10-22T02:46:33;1.67;;;0.90;;
7493;SDS011;3788;49.902;8.590;2022-10-22T02:49:01;1.10;;;1.00;;
7493;SDS011;3788;49.902;8.590;2022-10-22T02:51:29;0.80;;;0.80;;
7493;SDS011;3788;49.902;8.590;2022-10-22T02:53:55;0.80;;;0.80;;
7493;SDS011;3788;49.902;8.590;2022-10-22T02:56:22;0.80;;;0.80;;
7493;SDS011;3788;49.902;8.590;2022-10-22T02:58:49;0.83;;;0.80;;
7493;SDS011;3788;49.902;8.590;2022-10-22T03:01:15;1.23;;;0.90;;
7493;SDS011;3788;49.902;8.590;2022-10-22T03:03:42;1.43;;;0.70;;
7493;SDS011;3788;49.902;8.590;2022-10-22T03:06:09;1.20;;;0.83;;
7493;SDS011;3788;49.902;8.590;2022-10-22T03:08:37;0.90;;;0.90;;
7493;SDS011;3788;49.902;8.590;2022-10-22T03:11:04;1.17;;;1.03;;
7493;SDS011;3788;49.902;8.590;2022-10-22T03:13:31;0.93;;;0.90;;
7493;SDS011;3788;49.902;8.590;2022-10-22T03:15:58;2.13;;;0.90;;
7493;SDS011;3788;49.902;8.590;2022-10-22T03:18:24;1.43;;;0.90;;
7493;SDS011;3788;49.902;8.590;2022-10-22T03:20:57;0.90;;;0.90;;
7493;SDS011;3788;49.902;8.590;2022-10-22T03:23:26;1.93;;;0.90;;
7493;SDS011;3788;49.902;8.590;2022-10-22T03:25:54;0.80;;;0.80;;
7493;SDS011;3788;49.902;8.590;2022-10-22T03:28:22;2.60;;;0.80;;
7493;SDS011;3788;49.902;8.590;2022-10-22T03:30:50;0.90;;;0.90;;
7493;SDS011;3788;49.902;8.590;2022-10-22T03:33:17;1.10;;;1.00;;
7493;SDS011;3788;49.902;8.590;2022-10-22T03:35:44;1.50;;;0.97;;
7493;SDS011;3788;49.902;8.590;2022-10-22T03:38:12;1.10;;;0.80;;
7493;SDS011;3788;49.902;8.590;2022-10-22T03:40:40;1.37;;;0.70;;
7493;SDS011;3788;49.902;8.590;2022-10-22T03:43:10;1.60;;;1.00;;
7493;SDS011;3788;49.902;8.590;2022-10-22T03:45:37;1.20;;;1.10;;
7493;SDS011;3788;49.902;8.590;2022-10-22T03:48:04;1.73;;;0.90;;
7493;SDS011;3788;49.902;8.590;2022-10-22T03:50:30;1.53;;;1.00;;
7493;SDS011;3788;49.902;8.590;2022-10-22T03:52:57;1.40;;;0.97;;
7493;SDS011;3788;49.902;8.590;2022-10-22T03:55:24;1.20;;;1.10;;
7493;SDS011;3788;49.902;8.590;2022-10-22T03:57:51;1.07;;;1.07;;
7493;SDS011;3788;49.902;8.590;2022-10-22T04:00:20;1.80;;;1.07;;
7493;SDS011;3788;49.902;8.590;2022-10-22T04:02:46;2.43;;;1.00;;
7493;SDS011;3788;49.902;8.590;2022-10-22T04:05:13;1.10;;;1.00;;
7493;SDS011;3788;49.902;8.590;2022-10-22T04:07:40;1.13;;;1.07;;
7493;SDS011;3788;49.902;8.590;2022-10-22T04:10:07;0.70;;;0.70;;
7493;SDS011;3788;49.902;8.590;2022-10-22T04:12:34;1.27;;;0.87;;
7493;SDS011;3788;49.902;8.590;2022-10-22T04:15:00;0.87;;;0.87;;
7493;SDS011;3788;49.902;8.590;2022-10-22T04:17:32;0.77;;;0.77;;
7493;SDS011;3788;49.902;8.590;2022-10-22T04:19:59;1.63;;;1.10;;
7493;SDS011;3788;49.902;8.590;2022-10-22T04:22:26;1.40;;;1.27;;
7493;SDS011;3788;49.902;8.590;2022-10-22T04:24:53;1.77;;;1.10;;
7493;SDS011;3788;49.902;8.590;2022-10-22T04:27:20;1.70;;;1.00;;
7493;SDS011;3788;49.902;8.590;2022-10-22T04:29:47;2.10;;;1.20;;
7493;SDS011;3788;49.902;8.590;2022-10-22T04:32:14;1.30;;;0.80;;
7493;SDS011;3788;49.902;8.590;2022-10-22T04:34:42;2.07;;;0.97;;
7493;SDS011;3788;49.902;8.590;2022-10-22T04:37:08;2.70;;;1.00;;
7493;SDS011;3788;49.902;8.590;2022-10-22T04:39:35;2.37;;;1.30;;
7493;SDS011;3788;49.902;8.590;2022-10-22T04:42:02;1.30;;;1.20;;
7493;SDS011;3788;49.902;8.590;2022-10-22T04:44:29;1.60;;;1.50;;
7493;SDS011;3788;49.902;8.590;2022-10-22T04:46:56;1.00;;;1.00;;
7493;SDS011;3788;49.902;8.590;2022-10-22T04:49:22;2.30;;;1.13;;
7493;SDS011;3788;49.902;8.590;2022-10-22T04:51:51;1.10;;;1.00;;
7493;SDS011;3788;49.902;8.590;2022-10-22T04:54:18;1.30;;;1.00;;
7493;SDS011;3788;49.902;8.590;2022-10-22T04:56:44;1.30;;;1.10;;
7493;SDS011;3788;49.902;8.590;2022-10-22T04:59:11;0.93;;;0.93;;
7493;SDS011;3788;49.902;8.590;2022-10-22T05:01:38;1.03;;;0.93;;
7493;SDS011;3788;49.902;8.590;2022-10-22T05:04:07;1.83;;;1.00;;
7493;SDS011;3788;49.902;8.590;2022-10-22T05:06:37;2.27;;;1.50;;
7493;SDS011;3788;49.902;8.590;2022-10-22T05:09:06;1.40;;;1.13;;
7493;SDS011;3788;49.902;8.590;2022-10-22T05:11:36;1.10;;;1.00;;
7493;SDS011;3788;49.902;8.590;2022-10-22T05:14:05;1.63;;;1.00;;
7493;SDS011;3788;49.902;8.590;2022-10-22T05:16:33;1.30;;;0.90;;
7493;SDS011;3788;49.902;8.590;2022-10-22T05:19:02;0.97;;;0.97;;
7493;SDS011;3788;49.902;8.590;2022-10-22T05:21:29;1.60;;;0.90;;
7493;SDS011;3788;49.902;8.590;2022-10-22T05:23:56;1.23;;;1.13;;
7493;SDS011;3788;49.902;8.590;2022-10-22T05:26:26;1.00;;;0.87;;
7493;SDS011;3788;49.902;8.590;2022-10-22T05:28:54;1.07;;;0.97;;
7493;SDS011;3788;49.902;8.590;2022-10-22T05:31:21;1.73;;;0.97;;
7493;SDS011;3788;49.902;8.590;2022-10-22T05:33:48;0.90;;;0.87;;
7493;SDS011;3788;49.902;8.590;2022-10-22T05:36:15;2.17;;;1.00;;
7493;SDS011;3788;49.902;8.590;2022-10-22T05:38:43;0.70;;;0.70;;
7493;SDS011;3788;49.902;8.590;2022-10-22T05:41:11;0.90;;;0.90;;
7493;SDS011;3788;49.902;8.590;2022-10-22T05:43:41;1.00;;;1.00;;
7493;SDS011;3788;49.902;8.590;2022-10-22T05:46:08;0.60;;;0.60;;
7493;SDS011;3788;49.902;8.590;2022-10-22T05:48:37;1.13;;;0.80;;
7493;SDS011;3788;49.902;8.590;2022-10-22T05:51:05;0.80;;;0.80;;
7493;SDS011;3788;49.902;8.590;2022-10-22T05:53:33;0.87;;;0.87;;
7493;SDS011;3788;49.902;8.590;2022-10-22T05:56:01;2.20;;;0.90;;
7493;SDS011;3788;49.902;8.590;2022-10-22T05:58:30;1.13;;;0.70;;
7493;SDS011;3788;49.902;8.590;2022-10-22T06:01:02;1.80;;;0.90;;
7493;SDS011;3788;49.902;8.590;2022-10-22T06:03:30;1.33;;;0.90;;
7493;SDS011;3788;49.902;8.590;2022-10-22T06:05:58;1.43;;;1.17;;
7493;SDS011;3788;49.902;8.590;2022-10-22T06:08:26;1.80;;;0.67;;
7493;SDS011;3788;49.902;8.590;2022-10-22T06:10:54;1.47;;;1.00;;
7493;SDS011;3788;49.902;8.590;2022-10-22T06:13:21;1.20;;;1.10;;
7493;SDS011;3788;49.902;8.590;2022-10-22T06:15:48;2.07;;;1.07;;
7493;SDS011;3788;49.902;8.590;2022-10-22T06:18:18;1.73;;;1.07;;
7493;SDS011;3788;49.902;8.590;2022-10-22T06:20:45;1.47;;;1.10;;
7493;SDS011;3788;49.902;8.590;2022-10-22T06:23:12;2.20;;;0.80;;
7493;SDS011;3788;49.902;8.590;2022-10-22T06:25:39;0.70;;;0.70;;
7493;SDS011;3788;49.902;8.590;2022-10-22T06:28:07;1.50;;;0.87;;
7493;SDS011;3788;49.902;8.590;2022-10-22T06:30:37;2.33;;;0.90;;
7493;SDS011;3788;49.902;8.590;2022-10-22T06:33:04;0.67;;;0.60;;
7493;SDS011;3788;49.902;8.590;2022-10-22T06:35:32;0.77;;;0.77;;
7493;SDS011;3788;49.902;8.590;2022-10-22T06:37:59;1.53;;;1.00;;
7493;SDS011;3788;49.902;8.590;2022-10-22T06:40:26;1.10;;;1.00;;
7493;SDS011;3788;49.902;8.590;2022-10-22T06:42:53;0.80;;;0.80;;
7493;SDS011;3788;49.902;8.590;2022-10-22T06:45:20;0.70;;;0.70;;
7493;SDS011;3788;49.902;8.590;2022-10-22T06:47:47;1.23;;;0.93;;
7493;SDS011;3788;49.902;8.590;2022-10-22T06:50:15;0.93;;;0.90;;
7493;SDS011;3788;49.902;8.590;2022-10-22T06:52:43;1.00;;;0.80;;
7493;SDS011;3788;49.902;8.590;2022-10-22T06:55:10;1.23;;;0.90;;
7493;SDS011;3788;49.902;8.590;2022-10-22T06:57:37;2.57;;;0.90;;
7493;SDS011;3788;49.902;8.590;2022-10-22T07:00:04;1.13;;;0.80;;
7493;SDS011;3788;49.902;8.590;2022-10-22T07:02:32;1.13;;;0.80;;
7493;SDS011;3788;49.902;8.590;2022-10-22T07:04:59;0.80;;;0.80;;
7493;SDS011;3788;49.902;8.590;2022-10-22T07:07:25;1.80;;;1.10;;
7493;SDS011;3788;49.902;8.590;2022-10-22T07:09:54;2.57;;;0.77;;
7493;SDS011;3788;49.902;8.590;2022-10-22T07:12:21;3.43;;;1.00;;
7493;SDS011;3788;49.902;8.590;2022-10-22T07:14:51;1.37;;;0.80;;
7493;SDS011;3788;49.902;8.590;2022-10-22T07:17:17;2.23;;;1.10;;
7493;SDS011;3788;49.902;8.590;2022-10-22T07:19:44;1.80;;;0.90;;
7493;SDS011;3788;49.902;8.590;2022-10-22T07:22:11;0.70;;;0.70;;
7493;SDS011;3788;49.902;8.590;2022-10-22T07:24:38;0.73;;;0.73;;
7493;SDS011;3788;49.902;8.590;2022-10-22T07:27:07;1.40;;;0.80;;
7493;SDS011;3788;49.902;8.590;2022-10-22T07:29:35;0.90;;;0.90;;
7493;SDS011;3788;49.902;8.590;2022-10-22T07:32:02;0.70;;;0.70;;
7493;SDS011;3788;49.902;8.590;2022-10-22T07:34:29;0.87;;;0.70;;
7493;SDS011;3788;49.902;8.590;2022-10-22T07:36:57;1.70;;;0.80;;
7493;SDS011;3788;49.902;8.590;2022-10-22T07:39:25;3.57;;;0.60;;
7493;SDS011;3788;49.902;8.590;2022-10-22T07:41:52;1.27;;;0.80;;
7493;SDS011;3788;49.902;8.590;2022-10-22T07:44:21;0.70;;;0.70;;
7493;SDS011;3788;49.902;8.590;2022-10-22T07:46:51;1.67;;;0.60;;
7493;SDS011;3788;49.902;8.590;2022-10-22T07:49:18;1.03;;;0.67;;
7493;SDS011;3788;49.902;8.590;2022-10-22T07:51:45;1.20;;;0.60;;
7493;SDS011;3788;49.902;8.590;2022-10-22T07:54:11;1.17;;;0.73;;
7493;SDS011;3788;49.902;8.590;2022-10-22T07:56:39;0.50;;;0.50;;
7493;SDS011;3788;49.902;8.590;2022-10-22T07:59:07;0.83;;;0.80;;
7493;SDS011;3788;49.902;8.590;2022-10-22T08:01:35;1.20;;;0.50;;
7493;SDS011;3788;49.902;8.590;2022-10-22T08:04:02;1.17;;;0.70;;
7493;SDS011;3788;49.902;8.590;2022-10-22T08:06:32;0.53;;;0.53;;
7493;SDS011;3788;49.902;8.590;2022-10-22T08:08:59;1.30;;;0.77;;
7493;SDS011;3788;49.902;8.590;2022-10-22T08:11:26;0.60;;;0.60;;
7493;SDS011;3788;49.902;8.590;2022-10-22T08:13:53;0.87;;;0.53;;
7493;SDS011;3788;49.902;8.590;2022-10-22T08:16:20;0.40;;;0.40;;
7493;SDS011;3788;49.902;8.590;2022-10-22T08:18:48;0.83;;;0.80;;
7493;SDS011;3788;49.902;8.590;2022-10-22T08:21:15;0.70;;;0.70;;
7493;SDS011;3788;49.902;8.590;2022-10-22T08:23:42;1.73;;;0.40;;
7493;SDS011;3788;49.902;8.590;2022-10-22T08:26:09;2.33;;;0.50;;
7493;SDS011;3788;49.902;8.590;2022-10-22T08:28:36;0.60;;;0.60;;
7493;SDS011;3788;49.902;8.590;2022-10-22T08:31:07;1.43;;;0.50;;
7493;SDS011;3788;49.902;8.590;2022-10-22T08:33:34;1.23;;;1.07;;
7493;SDS011;3788;49.902;8.590;2022-10-22T08:36:05;1.97;;;1.10;;
7493;SDS011;3788;49.902;8.590;2022-10-22T08:38:32;2.10;;;0.80;;
7493;SDS011;3788;49.902;8.590;2022-10-22T08:41:02;1.20;;;0.67;;
7493;SDS011;3788;49.902;8.590;2022-10-22T08:43:50;0.70;;;0.70;;
7493;SDS011;3788;49.902;8.590;2022-10-22T08:46:34;1.20;;;0.80;;
7493;SDS011;3788;49.902;8.590;2022-10-22T08:49:12;1.00;;;0.80;;
7493;SDS011;3788;49.902;8.590;2022-10-22T08:51:46;1.13;;;0.60;;
7493;SDS011;3788;49.902;8.590;2022-10-22T08:54:16;1.43;;;0.50;;
7493;SDS011;3788;49.902;8.590;2022-10-22T08:56:52;0.80;;;0.60;;
7493;SDS011;3788;49.902;8.590;2022-10-22T08:59:30;1.27;;;0.70;;
7493;SDS011;3788;49.902;8.590;2022-10-22T09:02:02;0.53;;;0.53;;
7493;SDS011;3788;49.902;8.590;2022-10-22T09:04:41;0.50;;;0.50;;
7493;SDS011;3788;49.902;8.590;2022-10-22T09:07:17;0.70;;;0.70;;
7493;SDS011;3788;49.902;8.590;2022-10-22T09:09:45;2.10;;;1.13;;
7493;SDS011;3788;49.902;8.590;2022-10-22T09:12:16;1.87;;;0.73;;
7493;SDS011;3788;49.902;8.590;2022-10-22T09:14:47;0.80;;;0.60;;
7493;SDS011;3788;49.902;8.590;2022-10-22T09:17:15;2.57;;;0.70;;
7493;SDS011;3788;49.902;8.590;2022-10-22T09:19:48;1.13;;;0.90;;
7493;SDS011;3788;49.902;8.590;2022-10-22T09:22:29;1.53;;;0.97;;
7493;SDS011;3788;49.902;8.590;2022-10-22T09:25:01;2.70;;;0.97;;
7493;SDS011;3788;49.902;8.590;2022-10-22T09:27:42;0.80;;;0.70;;
7493;SDS011;3788;49.902;8.590;2022-10-22T09:30:10;1.23;;;0.80;;
7493;SDS011;3788;49.902;8.590;2022-10-22T09:32:41;1.60;;;1.07;;
7493;SDS011;3788;49.902;8.590;2022-10-22T09:35:08;0.60;;;0.60;;
7493;SDS011;3788;49.902;8.590;2022-10-22T09:37:43;1.07;;;0.90;;
7493;SDS011;3788;49.902;8.590;2022-10-22T09:40:13;2.93;;;0.70;;
7493;SDS011;3788;49.902;8.590;2022-10-22T09:42:40;0.50;;;0.50;;
7493;SDS011;3788;49.902;8.590;2022-10-22T09:45:13;0.73;;;0.70;;
7493;SDS011;3788;49.902;8.590;2022-10-22T09:47:43;4.10;;;1.20;;
7493;SDS011;3788;49.902;8.590;2022-10-22T09:50:20;1.47;;;1.30;;
7493;SDS011;3788;49.902;8.590;2022-10-22T09:52:58;0.93;;;0.90;;
7493;SDS011;3788;49.902;8.590;2022-10-22T09:55:27;1.03;;;0.93;;
7493;SDS011;3788;49.902;8.590;2022-10-22T09:57:54;2.33;;;0.90;;
7493;SDS011;3788;49.902;8.590;2022-10-22T10:00:23;1.77;;;0.83;;
7493;SDS011;3788;49.902;8.590;2022-10-22T10:02:52;1.80;;;0.80;;
7493;SDS011;3788;49.902;8.590;2022-10-22T10:05:24;2.43;;;1.20;;
7493;SDS011;3788;49.902;8.590;2022-10-22T10:07:53;1.10;;;1.00;;
7493;SDS011;3788;49.902;8.590;2022-10-22T10:10:25;1.23;;;0.93;;
7493;SDS011;3788;49.902;8.590;2022-10-22T10:13:00;0.97;;;0.90;;
7493;SDS011;3788;49.902;8.590;2022-10-22T10:15:34;2.93;;;2.03;;
7493;SDS011;3788;49.902;8.590;2022-10-22T10:18:06;1.83;;;1.20;;
7493;SDS011;3788;49.902;8.590;2022-10-22T10:20:44;3.63;;;1.10;;
7493;SDS011;3788;49.902;8.590;2022-10-22T10:23:18;1.70;;;1.27;;
7493;SDS011;3788;49.902;8.590;2022-10-22T10:25:54;1.43;;;0.90;;
7493;SDS011;3788;49.902;8.590;2022-10-22T10:28:38;0.90;;;0.90;;
7493;SDS011;3788;49.902;8.590;2022-10-22T10:31:25;0.90;;;0.80;;
7493;SDS011;3788;49.902;8.590;2022-10-22T10:34:03;1.13;;;1.03;;
7493;SDS011;3788;49.902;8.590;2022-10-22T10:36:38;1.17;;;1.07;;
7493;SDS011;3788;49.902;8.590;2022-10-22T10:39:16;1.93;;;1.07;;
7493;SDS011;3788;49.902;8.590;2022-10-22T10:41:51;1.53;;;1.40;;
7493;SDS011;3788;49.902;8.590;2022-10-22T10:44:32;4.00;;;1.67;;
7493;SDS011;3788;49.902;8.590;2022-10-22T10:47:12;3.43;;;1.53;;
7493;SDS011;3788;49.902;8.590;2022-10-22T10:49:47;1.63;;;1.33;;
7493;SDS011;3788;49.902;8.590;2022-10-22T10:52:20;2.17;;;1.13;;
7493;SDS011;3788;49.902;8.590;2022-10-22T10:54:57;3.37;;;2.23;;
7493;SDS011;3788;49.902;8.590;2022-10-22T10:57:35;5.10;;;3.50;;
7493;SDS011;3788;49.902;8.590;2022-10-22T11:00:13;4.83;;;3.20;;
7493;SDS011;3788;49.902;8.590;2022-10-22T11:05:40;2.97;;;1.20;;
7493;SDS011;3788;49.902;8.590;2022-10-22T11:08:13;3.23;;;1.00;;
7493;SDS011;3788;49.902;8.590;2022-10-22T11:10:44;2.53;;;1.63;;
7493;SDS011;3788;49.902;8.590;2022-10-22T11:13:27;4.70;;;2.00;;
7493;SDS011;3788;49.902;8.590;2022-10-22T11:15:58;2.30;;;1.20;;
7493;SDS011;3788;49.902;8.590;2022-10-22T11:18:31;3.00;;;1.27;;
7493;SDS011;3788;49.902;8.590;2022-10-22T11:21:06;1.13;;;0.90;;
7493;SDS011;3788;49.902;8.590;2022-10-22T11:23:39;2.53;;;1.50;;
7493;SDS011;3788;49.902;8.590;2022-10-22T11:26:24;4.07;;;2.47;;
7493;SDS011;3788;49.902;8.590;2022-10-22T11:28:58;3.93;;;1.90;;
7493;SDS011;3788;49.902;8.590;2022-10-22T11:31:27;3.50;;;1.40;;
7493;SDS011;3788;49.902;8.590;2022-10-22T11:33:57;1.47;;;1.03;;
7493;SDS011;3788;49.902;8.590;2022-10-22T11:36:31;1.00;;;0.90;;
7493;SDS011;3788;49.902;8.590;2022-10-22T11:38:59;3.87;;;1.20;;
7493;SDS011;3788;49.902;8.590;2022-10-22T11:41:28;1.70;;;1.30;;
7493;SDS011;3788;49.902;8.590;2022-10-22T11:44:04;1.07;;;0.80;;
7493;SDS011;3788;49.902;8.590;2022-10-22T11:46:38;2.40;;;1.17;;
7493;SDS011;3788;49.902;8.590;2022-10-22T11:49:16;1.40;;;0.90;;
7493;SDS011;3788;49.902;8.590;2022-10-22T11:51:47;1.63;;;0.90;;
7493;SDS011;3788;49.902;8.590;2022-10-22T11:57:18;2.80;;;1.80;;
7493;SDS011;3788;49.902;8.590;2022-10-22T11:59:50;1.60;;;1.20;;
7493;SDS011;3788;49.902;8.590;2022-10-22T12:02:22;1.83;;;1.20;;
7493;SDS011;3788;49.902;8.590;2022-10-22T12:05:15;2.20;;;1.30;;
7493;SDS011;3788;49.902;8.590;2022-10-22T12:07:59;1.83;;;1.40;;
7493;SDS011;3788;49.902;8.590;2022-10-22T12:10:32;1.47;;;0.87;;
7493;SDS011;3788;49.902;8.590;2022-10-22T12:13:15;3.03;;;1.00;;
7493;SDS011;3788;49.902;8.590;2022-10-22T12:15:48;1.33;;;1.10;;
7493;SDS011;3788;49.902;8.590;2022-10-22T12:18:18;1.07;;;0.90;;
7493;SDS011;3788;49.902;8.590;2022-10-22T12:20:51;1.20;;;1.10;;
7493;SDS011;3788;49.902;8.590;2022-10-22T12:23:27;1.13;;;0.87;;
7493;SDS011;3788;49.902;8.590;2022-10-22T12:25:56;3.07;;;1.73;;
7493;SDS011;3788;49.902;8.590;2022-10-22T12:28:23;4.17;;;2.07;;
7493;SDS011;3788;49.902;8.590;2022-10-22T12:30:51;3.53;;;3.00;;
7493;SDS011;3788;49.902;8.590;2022-10-22T12:33:19;5.77;;;3.43;;
7493;SDS011;3788;49.902;8.590;2022-10-22T12:35:47;5.73;;;3.33;;
7493;SDS011;3788;49.902;8.590;2022-10-22T12:38:18;5.80;;;2.23;;
7493;SDS011;3788;49.902;8.590;2022-10-22T12:40:46;3.17;;;2.17;;
7493;SDS011;3788;49.902;8.590;2022-10-22T12:43:15;1.80;;;1.00;;
7493;SDS011;3788;49.902;8.590;2022-10-22T12:45:44;1.97;;;0.73;;
7493;SDS011;3788;49.902;8.590;2022-10-22T12:48:15;2.37;;;1.50;;
7493;SDS011;3788;49.902;8.590;2022-10-22T12:50:44;2.37;;;1.20;;
7493;SDS011;3788;49.902;8.590;2022-10-22T12:53:14;3.17;;;1.00;;
7493;SDS011;3788;49.902;8.590;2022-10-22T12:55:45;3.37;;;0.80;;
7493;SDS011;3788;49.902;8.590;2022-10-22T12:58:14;2.37;;;0.97;;
7493;SDS011;3788;49.902;8.590;2022-10-22T13:00:44;2.83;;;1.10;;
7493;SDS011;3788;49.902;8.590;2022-10-22T13:03:16;2.30;;;1.13;;
7493;SDS011;3788;49.902;8.590;2022-10-22T13:05:51;1.97;;;0.83;;
7493;SDS011;3788;49.902;8.590;2022-10-22T13:08:19;3.60;;;1.10;;
7493;SDS011;3788;49.902;8.590;2022-10-22T13:10:49;1.80;;;0.77;;
7493;SDS011;3788;49.902;8.590;2022-10-22T13:13:30;3.33;;;1.50;;
7493;SDS011;3788;49.902;8.590;2022-10-22T13:16:11;1.83;;;1.10;;
7493;SDS011;3788;49.902;8.590;2022-10-22T13:18:40;2.60;;;1.00;;
7493;SDS011;3788;49.902;8.590;2022-10-22T13:21:25;2.77;;;1.40;;
7493;SDS011;3788;49.902;8.590;2022-10-22T13:23:58;1.97;;;0.90;;
7493;SDS011;3788;49.902;8.590;2022-10-22T13:26:31;1.33;;;0.90;;
7493;SDS011;3788;49.902;8.590;2022-10-22T13:28:59;1.97;;;1.10;;
7493;SDS011;3788;49.902;8.590;2022-10-22T13:31:28;1.63;;;0.80;;
7493;SDS011;3788;49.902;8.590;2022-10-22T13:33:59;1.43;;;0.80;;
7493;SDS011;3788;49.902;8.590;2022-10-22T13:36:30;3.47;;;1.27;;
7493;SDS011;3788;49.902;8.590;2022-10-22T13:38:57;2.57;;;1.23;;
7493;SDS011;3788;49.902;8.590;2022-10-22T13:41:24;4.83;;;2.50;;
7493;SDS011;3788;49.902;8.590;2022-10-22T13:43:52;4.30;;;1.53;;
7493;SDS011;3788;49.902;8.590;2022-10-22T13:46:20;2.67;;;1.13;;
7493;SDS011;3788;49.902;8.590;2022-10-22T13:48:48;2.17;;;1.10;;
7493;SDS011;3788;49.902;8.590;2022-10-22T13:51:19;3.20;;;1.10;;
7493;SDS011;3788;49.902;8.590;2022-10-22T13:53:47;1.70;;;0.90;;
7493;SDS011;3788;49.902;8.590;2022-10-22T13:56:17;2.93;;;1.33;;
7493;SDS011;3788;49.902;8.590;2022-10-22T13:58:45;0.90;;;0.70;;
7493;SDS011;3788;49.902;8.590;2022-10-22T14:01:15;1.10;;;0.70;;
7493;SDS011;3788;49.902;8.590;2022-10-22T14:03:46;2.27;;;0.90;;
7493;SDS011;3788;49.902;8.590;2022-10-22T14:06:14;1.58;;;0.95;;
7493;SDS011;3788;49.902;8.590;2022-10-22T14:08:44;2.63;;;1.43;;
7493;SDS011;3788;49.902;8.590;2022-10-22T14:11:14;2.40;;;1.30;;
7493;SDS011;3788;49.902;8.590;2022-10-22T14:13:42;3.00;;;1.37;;
7493;SDS011;3788;49.902;8.590;2022-10-22T14:16:12;1.77;;;1.10;;
7493;SDS011;3788;49.902;8.590;2022-10-22T14:18:43;3.80;;;1.00;;
7493;SDS011;3788;49.902;8.590;2022-10-22T14:21:11;1.37;;;0.83;;
7493;SDS011;3788;49.902;8.590;2022-10-22T14:23:39;1.70;;;1.00;;
7493;SDS011;3788;49.902;8.590;2022-10-22T14:26:08;3.17;;;1.00;;
7493;SDS011;3788;49.902;8.590;2022-10-22T14:28:43;1.40;;;1.20;;
7493;SDS011;3788;49.902;8.590;2022-10-22T14:31:10;1.33;;;1.00;;
7493;SDS011;3788;49.902;8.590;2022-10-22T14:33:36;0.83;;;0.80;;
7493;SDS011;3788;49.902;8.590;2022-10-22T14:36:05;2.27;;;0.80;;
7493;SDS011;3788;49.902;8.590;2022-10-22T14:38:32;3.13;;;0.87;;
7493;SDS011;3788;49.902;8.590;2022-10-22T14:40:59;2.20;;;0.80;;
7493;SDS011;3788;49.902;8.590;2022-10-22T14:43:27;1.87;;;0.80;;
7493;SDS011;3788;49.902;8.590;2022-10-22T14:45:55;3.67;;;1.53;;
7493;SDS011;3788;49.902;8.590;2022-10-22T14:48:22;2.17;;;0.90;;
7493;SDS011;3788;49.902;8.590;2022-10-22T14:50:50;2.10;;;1.10;;
7493;SDS011;3788;49.902;8.590;2022-10-22T14:53:16;1.30;;;1.00;;
7493;SDS011;3788;49.902;8.590;2022-10-22T14:55:43;4.07;;;1.23;;
7493;SDS011;3788;49.902;8.590;2022-10-22T14:58:11;4.23;;;1.40;;
7493;SDS011;3788;49.902;8.590;2022-10-22T15:00:40;3.77;;;1.13;;
7493;SDS011;3788;49.902;8.590;2022-10-22T15:03:07;4.40;;;1.47;;
7493;SDS011;3788;49.902;8.590;2022-10-22T15:05:38;3.30;;;1.53;;
7493;SDS011;3788;49.902;8.590;2022-10-22T15:08:07;3.90;;;1.80;;
7493;SDS011;3788;49.902;8.590;2022-10-22T15:10:34;1.30;;;1.03;;
7493;SDS011;3788;49.902;8.590;2022-10-22T15:13:01;3.13;;;1.50;;
7493;SDS011;3788;49.902;8.590;2022-10-22T15:15:27;1.40;;;1.20;;
7493;SDS011;3788;49.902;8.590;2022-10-22T15:17:56;4.10;;;1.30;;
7493;SDS011;3788;49.902;8.590;2022-10-22T15:20:22;2.33;;;1.40;;
7493;SDS011;3788;49.902;8.590;2022-10-22T15:22:49;3.30;;;1.40;;
7493;SDS011;3788;49.902;8.590;2022-10-22T15:25:16;3.17;;;1.60;;
7493;SDS011;3788;49.902;8.590;2022-10-22T15:27:43;1.83;;;1.73;;
7493;SDS011;3788;49.902;8.590;2022-10-22T15:30:10;1.90;;;1.20;;
7493;SDS011;3788;49.902;8.590;2022-10-22T15:32:38;2.73;;;1.33;;
7493;SDS011;3788;49.902;8.590;2022-10-22T15:35:06;1.63;;;1.10;;
7493;SDS011;3788;49.902;8.590;2022-10-22T15:37:33;4.10;;;1.40;;
7493;SDS011;3788;49.902;8.590;2022-10-22T15:40:01;1.70;;;1.10;;
7493;SDS011;3788;49.902;8.590;2022-10-22T15:42:29;2.10;;;1.00;;